Time;durP1;ratioP1;P1;durP2;ratioP2;P2;SDS_P1;SDS_P2;PMS_P1;PMS_P2;Temp;Humidity;BMP_temperature;BMP_pressure;BME280_temperature;BME280_humidity;BME280_pressure;Samples;Min_cycle;Max_cycle;Signal;HPM_P1;HPM_P2
2021/05/19 00:01:51;;;;;;;2.17;1.90;;;;;;;4.50;100.00;99710.34;5068655;28;20044;-53
2021/05/19 00:04:54;;;;;;;1.52;1.00;;;;;;;4.43;100.00;99704.28;5068953;28;20392;-53
2021/05/19 00:07:58;;;;;;;1.05;1.05;;;;;;;4.40;100.00;99716.94;5069157;28;20051;-55
2021/05/19 00:11:01;;;;;;;35.80;3.35;;;;;;;4.33;100.00;99721.91;5068482;28;20056;-55
2021/05/19 00:14:06;;;;;;;1.45;1.20;;;;;;;4.24;100.00;99714.28;5068911;28;20051;-53
2021/05/19 00:17:09;;;;;;;1.58;1.48;;;;;;;4.23;100.00;99712.72;5068832;28;20051;-53
2021/05/19 00:20:15;;;;;;;1.80;1.67;;;;;;;4.21;100.00;99709.63;5068491;28;20040;-54
2021/05/19 00:23:19;;;;;;;1.42;1.42;;;;;;;4.20;100.00;99713.56;5055171;28;20044;-54
2021/05/19 00:26:24;;;;;;;2.83;1.70;;;;;;;4.17;100.00;99702.66;5055573;28;20048;-53
2021/05/19 00:33:23;;;;;;;3.10;1.73;;;;;;;4.07;100.00;99710.00;5010677;28;20052;-59
2021/05/19 00:36:27;;;;;;;3.70;2.15;;;;;;;3.97;100.00;99711.06;4997811;28;20072;-57
2021/05/19 00:39:30;;;;;;;1.13;1.10;;;;;;;3.93;100.00;99709.59;4998052;28;20040;-55
2021/05/19 00:42:34;;;;;;;1.95;1.83;;;;;;;3.83;100.00;99711.44;5000984;28;20064;-55
2021/05/19 00:45:38;;;;;;;7.50;1.75;;;;;;;3.77;100.00;99708.44;5005520;28;20273;-55
2021/05/19 00:48:42;;;;;;;1.60;1.60;;;;;;;3.76;100.00;99715.16;5000699;28;20530;-55
2021/05/19 00:51:45;;;;;;;0.90;0.90;;;;;;;3.74;100.00;99708.53;5011157;28;20045;-55
2021/05/19 00:54:49;;;;;;;5.28;1.80;;;;;;;3.73;100.00;99706.97;4995716;28;20064;-56
2021/05/19 00:57:55;;;;;;;2.08;1.80;;;;;;;3.69;100.00;99711.81;5013804;28;20031;-61
2021/05/19 01:00:58;;;;;;;2.03;1.55;;;;;;;3.67;100.00;99714.22;5008820;28;20436;-61
2021/05/19 01:04:03;;;;;;;6.00;2.08;;;;;;;3.67;100.00;99706.72;5012524;28;20068;-61
2021/05/19 01:07:25;;;;;;;1.73;1.58;;;;;;;3.64;100.00;99704.06;5012252;28;20040;-61
2021/05/19 01:10:29;;;;;;;1.58;1.48;;;;;;;3.64;100.00;99704.06;5008321;28;20044;-61
2021/05/19 01:13:36;;;;;;;1.35;1.35;;;;;;;3.62;100.00;99709.22;5010320;28;20052;-61
2021/05/19 01:16:39;;;;;;;1.25;1.15;;;;;;;3.60;100.00;99708.88;4996781;28;20041;-61
2021/05/19 01:19:46;;;;;;;1.17;1.15;;;;;;;3.54;100.00;99699.59;5011983;28;20045;-61
2021/05/19 01:22:50;;;;;;;4.88;1.35;;;;;;;3.44;100.00;99706.94;5012268;28;20040;-59
2021/05/19 01:25:54;;;;;;;1.05;1.05;;;;;;;3.39;100.00;99707.44;5008529;28;20040;-62
2021/05/19 01:28:59;;;;;;;3.47;1.35;;;;;;;3.31;100.00;99699.78;5008182;28;20032;-60
2021/05/19 01:32:03;;;;;;;1.83;1.73;;;;;;;3.27;100.00;99707.38;5008530;28;20500;-57
2021/05/19 01:35:07;;;;;;;1.30;1.30;;;;;;;3.24;100.00;99710.97;5008503;28;20496;-57
2021/05/19 01:38:13;;;;;;;1.10;1.10;;;;;;;3.19;100.00;99711.47;5007459;28;20044;-62
2021/05/19 01:41:17;;;;;;;1.70;1.60;;;;;;;3.18;100.00;99709.94;5007424;28;20140;-62
2021/05/19 01:44:20;;;;;;;1.33;1.33;;;;;;;3.14;100.00;99714.75;5005876;28;20057;-61
2021/05/19 01:47:42;;;;;;;1.20;1.20;;;;;;;3.07;100.00;99710.19;5007156;28;21163;-59
2021/05/19 01:50:47;;;;;;;2.47;1.33;;;;;;;3.01;100.00;99712.66;5006303;28;20048;-60
2021/05/19 01:53:51;;;;;;;2.58;1.63;;;;;;;2.97;100.00;99711.97;5007361;28;20049;-60
2021/05/19 01:56:55;;;;;;;2.15;1.42;;;;;;;2.89;100.00;99718.84;5005562;28;20045;-59
2021/05/19 01:59:59;;;;;;;2.83;1.60;;;;;;;2.84;100.00;99711.09;5006843;28;20771;-59
2021/05/19 02:03:05;;;;;;;1.40;1.25;;;;;;;2.77;100.00;99713.22;4994175;28;20981;-59
2021/05/19 02:06:09;;;;;;;1.70;1.60;;;;;;;2.69;100.00;99712.59;5005788;28;20028;-59
2021/05/19 02:09:15;;;;;;;2.42;2.20;;;;;;;2.68;100.00;99719.31;5005793;28;20049;-59
2021/05/19 02:12:19;;;;;;;1.40;1.40;;;;;;;2.69;100.00;99715.34;5007230;28;20390;-59
2021/05/19 02:15:23;;;;;;;1.52;1.45;;;;;;;2.72;100.00;99717.25;5007072;28;20040;-59
2021/05/19 02:18:26;;;;;;;1.58;1.48;;;;;;;2.73;100.00;99724.28;5005505;28;20032;-59
2021/05/19 02:21:30;;;;;;;1.27;1.27;;;;;;;2.71;100.00;99726.69;5001448;28;20495;-58
2021/05/19 02:24:34;;;;;;;1.13;1.13;;;;;;;2.65;100.00;99722.13;5006495;28;20040;-58
2021/05/19 02:27:37;;;;;;;1.80;1.70;;;;;;;2.62;100.00;99734.72;5006651;28;20044;-58
2021/05/19 02:30:41;;;;;;;2.05;1.73;;;;;;;2.59;100.00;99735.59;5014980;28;20055;-58
2021/05/19 02:33:45;;;;;;;2.38;2.17;;;;;;;2.52;100.00;99745.94;5025318;28;20051;-59
2021/05/19 02:36:53;;;;;;;6.82;2.10;;;;;;;2.45;100.00;99744.13;5022741;28;20048;-59
2021/05/19 02:39:57;;;;;;;1.48;1.45;;;;;;;2.39;100.00;99740.31;5025249;28;20032;-59
2021/05/19 02:43:00;;;;;;;2.40;2.03;;;;;;;2.36;100.00;99738.41;5014274;28;20024;-58
2021/05/19 02:46:04;;;;;;;3.80;1.92;;;;;;;2.35;100.00;99745.13;5020722;28;20044;-58
2021/05/19 02:49:07;;;;;;;1.40;1.40;;;;;;;2.33;100.00;99750.25;5008353;28;20040;-59
2021/05/19 02:52:11;;;;;;;4.20;1.50;;;;;;;2.36;100.00;99754.16;5023759;28;20480;-58
2021/05/19 02:55:15;;;;;;;1.00;1.00;;;;;;;2.37;100.00;99750.97;5024921;28;20614;-58
2021/05/19 02:58:19;;;;;;;1.75;1.20;;;;;;;2.37;100.00;99739.19;5022295;28;20828;-59
2021/05/19 03:01:23;;;;;;;2.30;1.98;;;;;;;2.33;100.00;99747.50;5028865;28;20032;-58
2021/05/19 03:04:26;;;;;;;1.33;1.25;;;;;;;2.32;100.00;99748.69;5024839;28;20040;-59
2021/05/19 03:07:30;;;;;;;4.03;1.85;;;;;;;2.32;100.00;99754.19;5030931;28;20032;-58
2021/05/19 03:10:34;;;;;;;2.03;1.92;;;;;;;2.28;100.00;99758.97;5030909;28;20108;-57
2021/05/19 03:13:38;;;;;;;7.75;2.42;;;;;;;2.21;100.00;99759.13;5030446;28;20095;-58
2021/05/19 03:16:42;;;;;;;6.47;2.60;;;;;;;2.17;100.00;99758.41;5028850;28;20024;-56
2021/05/19 03:19:45;;;;;;;3.47;2.20;;;;;;;2.16;100.00;99754.13;5005499;28;20040;-58
2021/05/19 03:22:49;;;;;;;1.52;1.50;;;;;;;2.20;100.00;99758.34;5022476;28;20058;-57
2021/05/19 03:25:52;;;;;;;2.38;2.05;;;;;;;2.20;100.00;99754.84;5025677;28;20048;-59
2021/05/19 03:28:56;;;;;;;3.38;1.45;;;;;;;2.17;100.00;99752.91;5024461;28;20056;-59
2021/05/19 03:31:59;;;;;;;2.33;2.17;;;;;;;2.11;100.00;99760.88;5026719;28;20048;-58
2021/05/19 03:35:05;;;;;;;1.63;1.52;;;;;;;2.06;100.00;99755.09;5027876;28;20028;-58
2021/05/19 03:38:08;;;;;;;1.40;1.40;;;;;;;2.03;100.00;99758.69;5023428;28;20048;-58
2021/05/19 03:41:12;;;;;;;2.20;1.58;;;;;;;2.05;100.00;99759.03;5030696;28;20032;-58
2021/05/19 03:44:16;;;;;;;1.52;1.42;;;;;;;2.01;100.00;99761.06;5031774;28;20040;-56
2021/05/19 03:47:20;;;;;;;0.98;0.98;;;;;;;1.99;100.00;99772.47;5029367;28;20036;-58
2021/05/19 03:50:27;;;;;;;3.05;2.70;;;;;;;1.96;100.00;99775.28;5030382;28;20036;-58
2021/05/19 03:53:31;;;;;;;1.80;1.70;;;;;;;1.94;100.00;99777.66;5026524;28;20036;-59
2021/05/19 03:56:35;;;;;;;2.38;1.52;;;;;;;1.92;100.00;99780.06;5024352;28;20047;-58
2021/05/19 03:59:38;;;;;;;3.55;1.88;;;;;;;1.91;100.00;99775.75;5026281;28;20212;-58
2021/05/19 04:02:48;;;;;;;2.13;1.75;;;;;;;1.89;100.00;99773.44;5030323;28;20033;-58
2021/05/19 04:05:52;;;;;;;3.40;1.63;;;;;;;1.86;100.00;99776.25;5028034;28;20020;-59
2021/05/19 04:08:57;;;;;;;2.58;1.77;;;;;;;1.84;100.00;99778.66;5023281;28;20733;-59
2021/05/19 04:12:01;;;;;;;2.42;2.17;;;;;;;1.83;100.00;99790.81;5017366;28;20775;-59
2021/05/19 04:15:06;;;;;;;1.77;1.67;;;;;;;1.81;100.00;99793.19;5015376;28;20435;-59
2021/05/19 04:18:10;;;;;;;2.05;1.95;;;;;;;1.84;100.00;99795.88;5015128;28;20551;-59
2021/05/19 04:21:13;;;;;;;7.65;2.45;;;;;;;2.02;100.00;99795.56;5024148;28;20181;-58
2021/05/19 04:24:17;;;;;;;3.60;2.38;;;;;;;2.19;100.00;99792.50;5006523;28;20519;-59
2021/05/19 04:27:20;;;;;;;3.08;1.73;;;;;;;2.35;100.00;99791.03;5028796;28;20068;-58
2021/05/19 04:30:24;;;;;;;0.98;0.98;;;;;;;2.49;100.00;99797.03;5020973;28;20575;-58
2021/05/19 04:33:28;;;;;;;1.55;1.55;;;;;;;2.55;100.00;99795.38;5014597;28;20699;-58
2021/05/19 04:36:31;;;;;;;3.13;2.25;;;;;;;2.59;100.00;99798.81;5015065;28;20067;-58
2021/05/19 04:39:35;;;;;;;1.02;1.02;;;;;;;2.61;100.00;99796.41;5016399;28;20365;-59
2021/05/19 04:42:39;;;;;;;2.20;2.10;;;;;;;2.67;100.00;99808.47;5017455;28;20032;-57
2021/05/19 04:45:44;;;;;;;2.45;2.25;;;;;;;2.74;100.00;99816.59;5014642;28;20399;-58
2021/05/19 04:48:49;;;;;;;1.17;1.17;;;;;;;2.81;100.00;99808.19;5021233;28;21177;-58
2021/05/19 04:51:53;;;;;;;1.38;1.30;;;;;;;2.87;100.00;99809.25;5015015;28;20075;-58
2021/05/19 04:54:59;;;;;;;1.73;1.73;;;;;;;2.91;100.00;99818.19;5013695;28;20384;-60
2021/05/19 04:58:03;;;;;;;1.63;1.25;;;;;;;2.97;100.00;99816.50;5014551;28;20167;-60
2021/05/19 05:01:07;;;;;;;2.67;1.70;;;;;;;3.01;100.00;99822.69;5014601;28;20204;-59
2021/05/19 05:04:10;;;;;;;2.53;2.30;;;;;;;3.04;100.00;99816.34;5013699;28;20052;-60
2021/05/19 05:07:14;;;;;;;16.65;1.48;;;;;;;3.08;100.00;99825.28;5015617;28;20846;-60
2021/05/19 05:10:17;;;;;;;1.73;1.63;;;;;;;3.08;100.00;99833.53;5017466;28;20055;-59
2021/05/19 05:13:23;;;;;;;2.25;2.10;;;;;;;3.08;100.00;99830.78;5016850;28;20063;-59
2021/05/19 05:16:26;;;;;;;3.15;2.83;;;;;;;3.08;100.00;99839.03;5022668;28;20048;-60
2021/05/19 05:19:30;;;;;;;1.83;1.75;;;;;;;3.12;100.00;99844.47;5013569;28;20040;-59
2021/05/19 05:22:33;;;;;;;3.33;2.45;;;;;;;3.24;100.00;99843.03;5017673;28;20052;-59
2021/05/19 05:25:36;;;;;;;2.40;2.05;;;;;;;3.35;100.00;99835.34;5019125;28;20024;-58
2021/05/19 05:28:40;;;;;;;4.80;2.80;;;;;;;3.46;100.00;99841.38;5018010;28;20290;-59
2021/05/19 05:31:44;;;;;;;4.45;2.63;;;;;;;3.50;100.00;99842.06;5018281;28;20056;-59
2021/05/19 05:34:48;;;;;;;7.38;3.80;;;;;;;3.55;100.00;99845.06;5017589;28;20036;-58
2021/05/19 05:37:52;;;;;;;6.15;2.95;;;;;;;3.74;100.00;99851.75;5044493;22;20274;-55
2021/05/19 05:40:55;;;;;;;9.02;2.97;;;;;;;3.91;100.00;99845.03;5042617;28;20345;-55
2021/05/19 05:43:59;;;;;;;6.68;3.08;;;;;;;4.12;100.00;99844.50;5046509;28;20790;-55
2021/05/19 05:47:02;;;;;;;8.73;2.75;;;;;;;4.42;100.00;99857.88;5049227;28;20044;-55
2021/05/19 05:50:06;;;;;;;2.72;2.45;;;;;;;4.70;100.00;99861.13;5042837;28;20071;-55
2021/05/19 05:53:10;;;;;;;2.75;2.42;;;;;;;4.98;100.00;99861.06;5049587;28;20341;-55
2021/05/19 05:56:14;;;;;;;7.70;2.67;;;;;;;5.24;100.00;99864.69;5049559;28;20047;-55
2021/05/19 05:59:17;;;;;;;8.43;3.88;;;;;;;5.53;100.00;99862.63;5046379;28;20052;-55
2021/05/19 06:02:21;;;;;;;11.15;4.43;;;;;;;5.82;100.00;99863.28;5041941;28;20260;-54
2021/05/19 06:05:24;;;;;;;6.30;4.65;;;;;;;6.02;100.00;99872.13;5048454;28;20035;-55
2021/05/19 06:08:27;;;;;;;7.05;1.85;;;;;;;6.20;100.00;99871.56;5047073;28;20055;-55
2021/05/19 06:11:31;;;;;;;4.63;2.53;;;;;;;6.41;100.00;99873.59;5049174;28;20047;-55
2021/05/19 06:14:35;;;;;;;2.67;2.13;;;;;;;6.65;100.00;99873.97;5067166;28;20051;-55
2021/05/19 06:17:39;;;;;;;7.95;2.63;;;;;;;6.97;100.00;99879.16;5060019;28;20450;-60
2021/05/19 06:20:42;;;;;;;2.85;1.25;;;;;;;7.25;100.00;99888.44;5053608;28;20051;-59
2021/05/19 06:23:46;;;;;;;5.32;2.42;;;;;;;7.44;100.00;99879.78;5060635;28;20031;-59
2021/05/19 06:26:49;;;;;;;4.38;1.30;;;;;;;7.62;100.00;99882.63;5058659;28;20274;-59
2021/05/19 06:29:53;;;;;;;5.85;2.22;;;;;;;7.77;100.00;99891.19;5053165;28;20348;-55
2021/05/19 06:33:01;;;;;;;3.40;1.55;;;;;;;7.94;100.00;99897.25;5053884;28;20392;-54
2021/05/19 06:36:05;;;;;;;8.48;2.10;;;;;;;8.08;100.00;99896.66;5047212;28;20044;-55
2021/05/19 06:39:14;;;;;;;5.03;1.35;;;;;;;8.30;100.00;99900.16;5051958;28;20416;-55
2021/05/19 06:42:23;;;;;;;12.85;2.05;;;;;;;8.48;100.00;99911.31;5025041;28;20048;-54
2021/05/19 06:45:34;;;;;;;5.75;2.63;;;;;;;8.61;100.00;99908.38;5023199;28;20184;-54
2021/05/19 06:48:41;;;;;;;3.17;1.30;;;;;;;8.70;100.00;99911.97;5028891;28;20075;-55
2021/05/19 06:51:46;;;;;;;4.88;1.95;;;;;;;8.75;100.00;99914.09;5036461;28;20380;-55
2021/05/19 06:54:50;;;;;;;3.55;1.92;;;;;;;8.87;100.00;99927.09;5030281;28;20059;-55
2021/05/19 06:57:54;;;;;;;1.95;1.55;;;;;;;8.99;100.00;99917.81;5042027;28;20053;-55
2021/05/19 07:00:57;;;;;;;4.07;1.90;;;;;;;9.10;100.00;99923.69;5041423;28;20713;-55
2021/05/19 07:04:01;;;;;;;4.40;2.00;;;;;;;9.32;100.00;99922.72;5041349;28;20595;-55
2021/05/19 07:07:05;;;;;;;3.90;1.80;;;;;;;9.55;100.00;99919.31;5032517;28;20035;-56
2021/05/19 07:10:09;;;;;;;3.38;1.20;;;;;;;9.71;100.00;99922.50;5046577;28;20721;-55
2021/05/19 07:13:21;;;;;;;1.05;0.57;;;;;;;9.57;100.00;99927.97;5045064;28;20040;-55
2021/05/19 07:16:36;;;;;;;1.63;0.80;;;;;;;9.68;100.00;99922.69;5034301;28;20047;-55
2021/05/19 07:19:42;;;;;;;2.63;1.05;;;;;;;10.10;100.00;99929.00;5042918;28;20044;-55
2021/05/19 07:22:46;;;;;;;4.35;1.08;;;;;;;10.37;100.00;99928.88;5037054;28;20039;-55
2021/05/19 07:25:49;;;;;;;4.78;1.42;;;;;;;10.45;100.00;99930.09;5064617;28;20044;-55
2021/05/19 07:28:53;;;;;;;4.07;1.27;;;;;;;10.36;100.00;99932.94;5072545;28;20044;-55
2021/05/19 07:31:58;;;;;;;4.03;1.33;;;;;;;10.25;100.00;99938.25;5073343;28;20051;-55
2021/05/19 07:35:03;;;;;;;3.15;0.65;;;;;;;10.12;100.00;99937.69;5076077;28;20039;-55
2021/05/19 07:38:08;;;;;;;3.88;1.58;;;;;;;10.04;100.00;99930.91;5076327;28;20059;-55
2021/05/19 07:41:11;;;;;;;3.33;1.00;;;;;;;9.94;100.00;99935.72;5076291;28;20052;-55
2021/05/19 07:44:15;;;;;;;1.65;0.80;;;;;;;10.09;100.00;99930.22;5076689;28;20460;-55
2021/05/19 07:47:18;;;;;;;3.05;2.00;;;;;;;10.13;100.00;99930.88;5067320;28;20052;-55
2021/05/19 07:50:22;;;;;;;3.08;1.30;;;;;;;10.18;100.00;99933.00;5061926;28;20047;-55
2021/05/19 07:53:25;;;;;;;3.80;1.75;;;;;;;10.24;100.00;99939.50;5089429;28;20494;-55
2021/05/19 07:56:38;;;;;;;2.28;1.45;;;;;;;10.34;100.00;99940.97;5083986;28;20086;-55
2021/05/19 07:59:44;;;;;;;2.33;1.40;;;;;;;10.27;100.00;99949.66;5095952;28;20134;-55
2021/05/19 08:02:47;;;;;;;1.85;0.82;;;;;;;10.37;100.00;99945.59;5096220;28;20043;-55
2021/05/19 08:05:51;;;;;;;1.58;1.15;;;;;;;10.55;100.00;99944.72;5096571;28;20043;-55
2021/05/19 08:08:54;;;;;;;3.50;1.67;;;;;;;10.71;100.00;99946.34;5082474;28;20059;-55
2021/05/19 08:12:00;;;;;;;6.10;2.08;;;;;;;10.83;100.00;99942.56;5086241;28;20055;-55
2021/05/19 08:15:06;;;;;;;3.42;1.58;;;;;;;10.94;100.00;99948.34;5095646;28;20506;-56
2021/05/19 08:18:11;;;;;;;1.65;1.38;;;;;;;11.51;100.00;99952.50;5095144;28;20494;-56
2021/05/19 08:21:14;;;;;;;3.22;2.08;;;;;;;11.67;100.00;99943.69;5095713;28;20387;-56
2021/05/19 08:24:18;;;;;;;2.80;1.58;;;;;;;11.54;100.00;99951.56;5094450;28;20629;-56
2021/05/19 08:27:22;;;;;;;2.10;1.73;;;;;;;11.55;100.00;99952.31;5090095;28;20055;-55
2021/05/19 08:30:27;;;;;;;2.38;1.17;;;;;;;11.58;100.00;99945.78;5093436;28;20055;-56
2021/05/19 08:33:31;;;;;;;2.42;2.10;;;;;;;11.53;100.00;99950.00;5090685;28;20051;-56
2021/05/19 08:36:35;;;;;;;1.52;0.95;;;;;;;11.43;100.00;99962.50;5093219;28;20410;-56
2021/05/19 08:39:39;;;;;;;2.88;1.50;;;;;;;11.35;100.00;99955.75;5095355;28;20047;-56
2021/05/19 08:42:42;;;;;;;1.98;1.35;;;;;;;11.43;100.00;99954.13;5095086;28;20043;-56
2021/05/19 08:45:46;;;;;;;1.75;1.30;;;;;;;11.86;100.00;99956.19;5095329;28;20047;-56
2021/05/19 08:49:01;;;;;;;4.75;1.60;;;;;;;12.23;100.00;99950.19;5095381;28;20396;-56
2021/05/19 08:52:04;;;;;;;1.48;1.27;;;;;;;12.50;100.00;99958.19;5095307;28;20047;-56
2021/05/19 08:55:13;;;;;;;1.17;0.90;;;;;;;11.98;100.00;99952.34;5094651;28;20047;-56
2021/05/19 08:58:17;;;;;;;1.42;0.93;;;;;;;12.05;100.00;99951.94;5094940;28;20129;-56
2021/05/19 09:01:21;;;;;;;2.70;1.05;;;;;;;12.57;100.00;99968.97;5094782;28;20051;-56
2021/05/19 09:04:25;;;;;;;3.25;1.30;;;;;;;13.15;100.00;99951.97;5094496;28;20047;-56
2021/05/19 09:07:28;;;;;;;2.53;1.38;;;;;;;13.52;100.00;99958.50;5094295;28;20396;-56
2021/05/19 09:10:33;;;;;;;1.60;0.90;;;;;;;13.87;100.00;99954.75;5094401;28;20047;-56
2021/05/19 09:13:43;;;;;;;2.67;1.67;;;;;;;14.20;100.00;99952.22;5094690;28;20051;-56
2021/05/19 09:16:46;;;;;;;1.60;1.05;;;;;;;14.59;100.00;99958.88;5094692;28;20043;-56
2021/05/19 09:20:06;;;;;;;1.17;0.85;;;;;;;15.28;100.00;99951.03;5094746;28;20063;-56
2021/05/19 09:23:16;;;;;;;5.60;1.83;;;;;;;14.81;100.00;99963.84;5094918;28;20046;-56
2021/05/19 09:26:19;;;;;;;1.63;1.27;;;;;;;13.94;100.00;99965.50;5089749;28;20047;-55
2021/05/19 09:29:25;;;;;;;1.10;0.95;;;;;;;13.32;100.00;99972.50;5094037;28;20043;-55
2021/05/19 09:32:33;;;;;;;5.22;1.33;;;;;;;13.03;100.00;99977.47;5094383;28;20380;-55
2021/05/19 09:35:37;;;;;;;0.98;0.60;;;;;;;13.72;100.00;99974.47;5093749;28;20626;-55
2021/05/19 09:38:43;;;;;;;1.83;0.73;;;;;;;14.50;100.00;99967.50;5093526;28;20058;-55
2021/05/19 09:41:55;;;;;;;0.88;0.32;;;;;;;14.10;100.00;99971.22;5094123;28;20063;-55
2021/05/19 09:45:14;;;;;;;1.58;1.05;;;;;;;13.80;100.00;99983.94;5093939;28;20051;-55
2021/05/19 09:48:17;;;;;;;1.23;0.82;;;;;;;14.31;100.00;99972.69;5094693;28;20043;-55
2021/05/19 09:51:26;;;;;;;5.15;1.27;;;;;;;14.30;100.00;99976.78;5093936;28;20039;-55
2021/05/19 09:54:34;;;;;;;1.10;1.00;;;;;;;14.08;100.00;99987.00;5077128;28;20043;-55
2021/05/19 09:57:43;;;;;;;0.90;0.85;;;;;;;14.11;100.00;99997.22;5093549;28;20047;-55
2021/05/19 10:00:46;;;;;;;3.75;1.15;;;;;;;14.16;100.00;99993.69;5093530;28;20051;-55
2021/05/19 10:03:52;;;;;;;0.90;0.90;;;;;;;13.85;100.00;99990.84;5093273;28;20054;-55
2021/05/19 10:06:58;;;;;;;4.10;0.73;;;;;;;14.21;100.00;99984.56;5093483;28;20047;-55
2021/05/19 10:10:03;;;;;;;6.30;0.50;;;;;;;14.46;100.00;99997.00;5093778;28;20046;-55
2021/05/19 10:13:08;;;;;;;0.40;0.40;;;;;;;14.33;100.00;100000.22;5093460;28;20063;-54
2021/05/19 10:16:18;;;;;;;0.90;0.90;;;;;;;14.14;100.00;100008.19;5093532;28;20042;-55
2021/05/19 10:19:52;;;;;;;1.88;0.98;;;;;;;13.98;100.00;100017.22;5093430;28;20051;-55
2021/05/19 10:22:56;;;;;;;0.43;0.40;;;;;;;13.90;100.00;100009.75;5080622;28;20062;-55
2021/05/19 10:26:08;;;;;;;1.88;1.20;;;;;;;14.36;100.00;100008.41;5093201;28;20047;-55
2021/05/19 10:29:11;;;;;;;2.40;1.10;;;;;;;14.99;100.00;100005.47;5093484;28;20396;-55
2021/05/19 10:32:21;;;;;;;0.50;0.25;;;;;;;15.58;100.00;100009.06;5093406;28;20043;-55
2021/05/19 10:35:36;;;;;;;1.05;0.70;;;;;;;15.56;100.00;100010.84;5088946;28;20491;-54
2021/05/19 10:38:40;;;;;;;3.25;0.60;;;;;;;15.10;100.00;100014.72;5092611;28;20141;-55
2021/05/19 10:41:48;;;;;;;0.85;0.50;;;;;;;14.57;100.00;100016.69;5092786;28;20042;-55
2021/05/19 10:45:09;;;;;;;0.82;0.55;;;;;;;14.03;100.00;100012.94;5092087;28;20047;-55
2021/05/19 10:48:35;;;;;;;0.73;0.45;;;;;;;13.69;100.00;100009.03;5092765;28;20039;-56
2021/05/19 10:58:41;;;;;;;4.10;1.48;;;;;;;14.73;100.00;99993.59;5092633;28;20043;-56
2021/05/19 11:01:50;;;;;;;3.47;1.23;;;;;;;15.11;100.00;99998.66;5092615;28;20047;-55
2021/05/19 11:05:12;;;;;;;0.85;0.50;;;;;;;15.01;100.00;99989.69;5092764;28;20043;-56
2021/05/19 11:08:16;;;;;;;6.65;1.48;;;;;;;15.14;100.00;100000.44;5091863;28;20051;-54
2021/05/19 11:11:28;;;;;;;3.72;0.93;;;;;;;15.36;100.00;99997.75;5092625;28;20066;-55
2021/05/19 11:14:42;;;;;;;0.63;0.20;;;;;;;15.42;100.00;99997.78;5089360;28;20047;-55
2021/05/19 11:17:53;;;;;;;0.82;0.57;;;;;;;15.47;100.00;99997.03;5092763;28;20627;-55
2021/05/19 11:21:02;;;;;;;1.40;0.45;;;;;;;15.71;100.00;99994.56;5092763;28;20039;-55
2021/05/19 11:24:11;;;;;;;3.05;0.85;;;;;;;15.94;100.00;99996.09;5092535;28;20043;-56
2021/05/19 11:27:16;;;;;;;2.08;0.47;;;;;;;15.60;100.00;99994.53;5092665;28;20051;-55
2021/05/19 11:30:24;;;;;;;1.45;0.80;;;;;;;15.39;100.00;99996.75;5092651;28;20055;-56
2021/05/19 11:33:29;;;;;;;4.43;0.52;;;;;;;15.59;100.00;99993.00;5092322;28;20067;-56
2021/05/19 11:36:53;;;;;;;0.57;0.50;;;;;;;15.88;100.00;100000.97;5067790;28;20039;-56
2021/05/19 11:39:57;;;;;;;0.20;0.20;;;;;;;16.22;100.00;99994.09;5068934;28;20042;-56
2021/05/19 11:43:00;;;;;;;1.83;0.50;;;;;;;15.88;100.00;100003.78;5069749;28;20040;-55
2021/05/19 11:46:04;;;;;;;0.77;0.30;;;;;;;15.23;100.00;100010.69;5092781;28;20494;-55
2021/05/19 11:49:11;;;;;;;0.10;0.10;;;;;;;14.74;100.00;100018.34;5092631;28;20051;-57
2021/05/19 11:52:14;;;;;;;0.13;0.13;;;;;;;15.08;100.00;100006.03;5092572;28;20043;-55
2021/05/19 11:55:41;;;;;;;0.17;0.10;;;;;;;15.74;100.00;100016.00;5091889;28;20047;-55
2021/05/19 11:58:45;;;;;;;0.10;0.00;;;;;;;16.40;100.00;100024.50;5091448;28;20043;-55
2021/05/19 12:02:13;;;;;;;0.17;0.17;;;;;;;16.37;100.00;100019.13;5091980;28;20055;-56
2021/05/19 12:05:16;;;;;;;2.45;0.20;;;;;;;16.27;100.00;100027.03;5092241;28;20046;-55
2021/05/19 12:08:21;;;;;;;0.80;0.15;;;;;;;16.92;100.00;100041.59;5086777;28;20035;-55
2021/05/19 12:11:26;;;;;;;0.25;0.08;;;;;;;17.30;100.00;100056.84;5091064;28;20043;-56
2021/05/19 12:14:31;;;;;;;0.30;0.05;;;;;;;16.62;100.00;100049.81;5082825;28;20059;-55
2021/05/19 12:17:34;;;;;;;0.65;0.20;;;;;;;16.05;100.00;100052.31;5058079;28;20095;-56
2021/05/19 12:20:38;;;;;;;0.10;0.00;;;;;;;15.40;100.00;100054.38;5074586;28;20396;-56
2021/05/19 12:23:42;;;;;;;0.32;0.17;;;;;;;15.20;100.00;100058.13;5072792;28;20488;-56
2021/05/19 12:26:46;;;;;;;0.68;0.00;;;;;;;14.79;100.00;100045.63;5074890;28;20052;-56
2021/05/19 12:29:57;;;;;;;0.20;0.10;;;;;;;14.46;100.00;100051.03;5074642;28;20051;-56
2021/05/19 12:33:05;;;;;;;0.10;0.10;;;;;;;14.27;100.00;100055.41;5073522;28;20044;-56
2021/05/19 12:36:31;;;;;;;0.38;0.13;;;;;;;14.31;100.00;100056.72;5074303;28;20043;-56
2021/05/19 12:39:36;;;;;;;1.05;0.20;;;;;;;14.53;100.00;100063.81;5075454;28;20063;-56
2021/05/19 12:42:42;;;;;;;0.20;0.20;;;;;;;14.89;100.00;100061.00;5075119;28;20035;-56
2021/05/19 12:45:50;;;;;;;0.52;0.22;;;;;;;14.99;100.00;100053.16;5075295;28;20048;-56
2021/05/19 12:48:53;;;;;;;0.20;0.10;;;;;;;14.99;100.00;100067.97;5073264;28;20385;-56
2021/05/19 12:52:00;;;;;;;0.10;0.10;;;;;;;15.04;100.00;100067.22;5073349;28;20067;-57
2021/05/19 12:55:06;;;;;;;0.40;0.20;;;;;;;15.09;100.00;100060.13;5074211;28;20052;-56
2021/05/19 12:58:11;;;;;;;0.73;0.20;;;;;;;15.60;100.00;100050.66;5073737;28;20043;-56
2021/05/19 13:01:14;;;;;;;7.53;1.27;;;;;;;16.12;100.00;100057.44;5072995;28;20059;-56
2021/05/19 13:04:24;;;;;;;0.65;0.25;;;;;;;15.82;100.00;100059.16;5054616;28;20044;-57
2021/05/19 13:07:28;;;;;;;1.02;0.30;;;;;;;15.34;100.00;100061.25;5045224;28;20028;-57
2021/05/19 13:10:34;;;;;;;0.85;0.30;;;;;;;15.32;100.00;100058.94;5043793;28;20036;-57
2021/05/19 13:13:44;;;;;;;6.40;0.35;;;;;;;15.47;100.00;100053.16;5042004;28;20052;-56
2021/05/19 13:16:47;;;;;;;0.30;0.15;;;;;;;15.95;100.00;100065.06;5044068;28;20037;-55
2021/05/19 13:20:01;;;;;;;0.63;0.30;;;;;;;15.67;100.00;100067.03;5049636;28;20046;-56
2021/05/19 13:23:08;;;;;;;0.63;0.10;;;;;;;15.71;100.00;100061.94;5029127;28;20025;-55
2021/05/19 13:26:16;;;;;;;0.00;0.00;;;;;;;15.47;100.00;100076.41;5023024;28;20052;-57
2021/05/19 13:29:21;;;;;;;0.10;0.00;;;;;;;15.53;100.00;100063.16;5041620;28;20047;-57
2021/05/19 13:39:24;;;;;;;0.15;0.03;;;;;;;14.80;100.00;100075.22;5044801;28;20056;-56
2021/05/19 13:42:27;;;;;;;0.75;0.20;;;;;;;14.87;100.00;100083.19;5042371;28;20524;-57
2021/05/19 13:45:31;;;;;;;4.20;0.20;;;;;;;14.76;100.00;100085.91;5044280;28;20036;-56
2021/05/19 13:48:35;;;;;;;0.10;0.10;;;;;;;15.19;100.00;100081.84;5044462;28;20047;-57
2021/05/19 13:51:39;;;;;;;0.30;0.10;;;;;;;15.59;100.00;100082.84;5044155;28;20023;-57
2021/05/19 13:54:44;;;;;;;0.10;0.10;;;;;;;16.16;100.00;100080.44;5026842;28;20748;-57
2021/05/19 13:57:48;;;;;;;8.77;0.25;;;;;;;16.68;100.00;100092.75;5039442;28;20032;-57
2021/05/19 14:00:51;;;;;;;0.20;0.20;;;;;;;17.10;100.00;100093.75;5038993;28;20091;-57
2021/05/19 14:04:01;;;;;;;0.30;0.20;;;;;;;17.03;100.00;100088.63;5041623;28;20027;-57
2021/05/19 14:07:04;;;;;;;0.40;0.00;;;;;;;16.74;100.00;100106.06;5041987;28;20551;-57
2021/05/19 14:10:10;;;;;;;0.77;0.17;;;;;;;16.64;100.00;100103.50;5041566;28;20392;-57
2021/05/19 14:13:14;;;;;;;0.08;0.08;;;;;;;16.85;100.00;100106.81;5043360;28;20036;-57
2021/05/19 14:16:48;;;;;;;1.02;0.10;;;;;;;16.69;100.00;100116.03;5042761;28;20035;-56
2021/05/19 14:29:49;;;;;;;0.63;0.25;;;;;;;15.58;100.00;100114.97;5047001;28;20159;-57
2021/05/19 14:32:53;;;;;;;2.75;0.40;;;;;;;15.06;100.00;100128.44;5051427;28;20031;-57
2021/05/19 14:46:32;;;;;;;0.50;0.13;;;;;;;13.87;100.00;100128.31;5050107;28;20047;-56
2021/05/19 15:02:41;;;;;;;0.10;0.00;;;;;;;15.76;100.00;100125.78;5052377;28;20118;-58
2021/05/19 15:05:45;;;;;;;0.20;0.10;;;;;;;15.40;100.00;100129.41;5029043;28;20032;-55
2021/05/19 15:08:49;;;;;;;0.90;0.10;;;;;;;15.23;100.00;100134.13;5037841;28;20040;-56
2021/05/19 15:11:52;;;;;;;0.10;0.00;;;;;;;15.41;100.00;100119.72;5021046;28;20048;-55
2021/05/19 15:14:56;;;;;;;3.10;0.20;;;;;;;15.17;100.00;100128.50;5038137;28;20063;-56
2021/05/19 15:17:59;;;;;;;0.20;0.20;;;;;;;15.11;100.00;100127.72;5052516;28;20182;-61